Time;durP1;ratioP1;P1;durP2;ratioP2;P2;SDS_P1;SDS_P2;PMS_P1;PMS_P2;Temp;Humidity;BMP_temperature;BMP_pressure;BME280_temperature;BME280_humidity;BME280_pressure;Samples;Min_cycle;Max_cycle;Signal;HPM_P1;HPM_P2
2022/05/23 00:02:22;;;;;;;7.05;5.40;;;;;;;15.30;72.96;100572.44;10458169;28;20536;-72
2022/05/23 00:07:30;;;;;;;13.38;6.55;;;;;;;15.22;72.84;100554.69;10458379;28;20067;-72
2022/05/23 00:12:30;;;;;;;16.10;7.45;;;;;;;15.19;72.54;100556.38;10475224;28;20094;-71
2022/05/23 00:17:31;;;;;;;7.07;4.82;;;;;;;15.31;73.20;100547.84;10464678;28;20447;-71
2022/05/23 00:22:32;;;;;;;8.63;5.28;;;;;;;15.27;71.96;100526.69;10464845;28;20400;-72
2022/05/23 00:27:32;;;;;;;12.27;6.03;;;;;;;15.21;72.31;100518.66;10430788;28;20072;-72
2022/05/23 00:37:53;;;;;;;11.00;4.95;;;;;;;15.23;72.38;100514.31;10471446;28;20116;-72
2022/05/23 00:43:14;;;;;;;17.00;6.73;;;;;;;15.15;72.52;100501.81;10456418;28;20083;-72
2022/05/23 00:48:16;;;;;;;8.90;5.40;;;;;;;15.21;72.31;100496.69;10429681;28;20041;-72
2022/05/23 00:53:18;;;;;;;9.80;6.20;;;;;;;15.16;72.29;100495.69;10449002;28;20373;-72
2022/05/23 00:58:21;;;;;;;7.63;5.43;;;;;;;15.04;73.71;100491.91;10455154;28;20029;-71
2022/05/23 01:03:22;;;;;;;9.35;5.18;;;;;;;14.97;74.51;100504.03;10470759;28;20037;-72
2022/05/23 01:08:22;;;;;;;11.98;5.38;;;;;;;14.91;74.54;100505.66;10456318;28;20122;-73
2022/05/23 01:13:23;;;;;;;7.53;5.80;;;;;;;14.84;75.50;100507.22;10456121;28;20041;-73
2022/05/23 01:18:23;;;;;;;10.55;4.90;;;;;;;14.78;76.07;100504.44;10452419;28;20527;-73
2022/05/23 01:23:35;;;;;;;8.63;5.28;;;;;;;14.70;77.26;100504.28;10427763;28;20116;-73
2022/05/23 01:28:40;;;;;;;7.63;5.03;;;;;;;14.60;78.87;100502.22;10454214;28;20036;-73
2022/05/23 01:33:40;;;;;;;9.32;5.78;;;;;;;14.51;79.01;100502.88;10448978;28;20037;-73
2022/05/23 01:38:41;;;;;;;9.15;5.00;;;;;;;14.47;79.77;100499.28;10426081;28;20167;-73
2022/05/23 01:43:41;;;;;;;8.95;5.57;;;;;;;14.39;80.96;100492.94;10435708;28;20484;-73
2022/05/23 01:48:42;;;;;;;9.07;5.47;;;;;;;14.31;81.75;100482.19;10462066;28;20455;-73
2022/05/23 01:53:42;;;;;;;11.60;5.03;;;;;;;14.29;81.33;100486.50;10421620;28;20110;-73
2022/05/23 02:04:02;;;;;;;12.88;5.53;;;;;;;14.19;81.99;100480.13;10454368;28;20033;-73
2022/05/23 02:09:04;;;;;;;6.68;4.70;;;;;;;14.21;81.84;100473.16;10446328;28;20040;-73
2022/05/23 02:14:04;;;;;;;7.82;4.95;;;;;;;14.18;81.97;100469.53;10454022;28;20037;-73
2022/05/23 02:19:05;;;;;;;6.78;6.03;;;;;;;14.12;83.22;100469.38;10424815;28;20469;-73
2022/05/23 02:24:06;;;;;;;7.95;5.70;;;;;;;14.05;83.16;100463.94;10450740;28;20049;-73
2022/05/23 02:29:08;;;;;;;5.93;4.40;;;;;;;13.97;83.02;100462.84;10453911;28;20498;-73
2022/05/23 02:34:10;;;;;;;7.37;5.00;;;;;;;13.97;82.23;100447.06;10469454;28;20071;-73
2022/05/23 02:39:10;;;;;;;8.68;4.35;;;;;;;13.98;83.03;100438.31;10435788;28;20029;-73
2022/05/23 02:44:11;;;;;;;7.18;4.53;;;;;;;13.82;82.67;100444.03;10415929;28;20037;-73
2022/05/23 02:49:12;;;;;;;13.85;5.68;;;;;;;13.64;84.18;100426.88;10448323;28;20541;-72
2022/05/23 02:54:12;;;;;;;7.05;5.38;;;;;;;13.45;84.31;100422.84;10445944;28;20029;-73
2022/05/23 02:59:13;;;;;;;6.07;4.57;;;;;;;13.30;84.69;100410.13;10433070;28;20033;-73
2022/05/23 03:04:13;;;;;;;7.93;5.72;;;;;;;13.11;85.70;100406.94;10432317;28;20099;-73
2022/05/23 03:09:13;;;;;;;7.40;4.80;;;;;;;12.95;87.02;100397.72;10452880;28;20106;-73
2022/05/23 03:14:14;;;;;;;9.63;5.45;;;;;;;12.74;87.94;100383.09;10450201;28;20465;-73
2022/05/23 03:19:14;;;;;;;11.35;6.35;;;;;;;12.60;88.52;100374.75;10451575;28;20108;-73
2022/05/23 03:29:34;;;;;;;9.15;5.28;;;;;;;12.41;90.16;100372.41;10461014;28;20037;-73
2022/05/23 03:34:34;;;;;;;10.63;5.78;;;;;;;12.39;90.63;100363.59;10453158;28;20064;-73
2022/05/23 03:39:37;;;;;;;7.82;6.43;;;;;;;12.27;90.43;100343.09;10449648;28;20457;-73
2022/05/23 03:44:38;;;;;;;9.43;6.10;;;;;;;12.26;90.91;100331.69;10452405;28;20033;-73
2022/05/23 03:49:38;;;;;;;10.63;7.15;;;;;;;12.24;91.69;100317.63;10463093;28;20056;-73
2022/05/23 03:54:39;;;;;;;8.63;4.78;;;;;;;12.18;91.51;100304.31;10448144;28;20060;-73
2022/05/23 03:59:39;;;;;;;7.32;6.03;;;;;;;12.27;92.10;100307.25;10461168;28;20141;-72
2022/05/23 04:04:40;;;;;;;9.25;5.90;;;;;;;12.33;91.64;100302.19;10463652;28;20068;-73
2022/05/23 04:09:40;;;;;;;9.13;4.97;;;;;;;12.36;92.13;100311.91;10457553;28;20136;-72
2022/05/23 04:14:41;;;;;;;8.98;4.07;;;;;;;12.39;91.60;100306.75;10460521;28;20040;-72
2022/05/23 04:19:41;;;;;;;7.80;4.28;;;;;;;12.51;91.35;100311.47;10457879;28;20115;-73
2022/05/23 04:24:42;;;;;;;12.77;7.28;;;;;;;12.72;90.86;100291.97;10447786;28;20083;-73
2022/05/23 04:29:43;;;;;;;16.45;6.60;;;;;;;13.00;90.45;100280.53;10455343;28;20124;-73
2022/05/23 04:40:03;;;;;;;7.10;4.88;;;;;;;13.36;88.69;100264.00;10443499;28;20053;-73
2022/05/23 04:45:04;;;;;;;6.55;4.60;;;;;;;13.42;87.85;100251.91;10443576;28;20029;-72
2022/05/23 04:50:05;;;;;;;7.20;4.33;;;;;;;13.61;88.25;100248.91;10435684;28;20044;-73
2022/05/23 04:55:06;;;;;;;5.63;3.97;;;;;;;13.89;86.93;100246.97;10455144;28;20099;-72
2022/05/23 05:00:09;;;;;;;5.55;4.00;;;;;;;14.04;85.19;100241.16;10452755;28;20473;-72
2022/05/23 05:05:10;;;;;;;10.43;5.00;;;;;;;14.31;84.73;100239.13;10473228;28;20033;-72
2022/05/23 05:10:11;;;;;;;6.47;3.10;;;;;;;14.68;83.63;100235.53;10435407;28;20033;-73
2022/05/23 05:15:11;;;;;;;6.10;4.18;;;;;;;14.83;82.11;100223.56;10450487;28;21659;-72
2022/05/23 05:20:12;;;;;;;8.13;4.60;;;;;;;15.03;80.83;100220.44;10454179;28;20067;-73
2022/05/23 05:25:13;;;;;;;19.88;11.73;;;;;;;15.11;80.38;100206.56;10446428;28;20028;-74
2022/05/23 05:30:19;;;;;;;15.38;9.68;;;;;;;15.31;80.38;100200.75;10449824;28;20472;-73
2022/05/23 05:35:38;;;;;;;12.07;6.15;;;;;;;15.63;76.42;100191.59;10452517;28;20107;-72
2022/05/23 05:40:39;;;;;;;6.65;4.25;;;;;;;15.80;76.26;100182.19;10454875;28;20039;-72
2022/05/23 05:45:42;;;;;;;9.63;4.30;;;;;;;16.06;72.66;100187.00;10424572;28;20029;-73
2022/05/23 05:50:43;;;;;;;11.05;5.22;;;;;;;16.26;72.79;100170.56;10428878;28;20112;-73
2022/05/23 05:55:43;;;;;;;7.82;3.90;;;;;;;16.46;72.13;100170.84;10427217;28;20030;-72
2022/05/23 06:00:44;;;;;;;5.05;3.40;;;;;;;16.90;71.56;100172.19;10468882;28;20043;-71
2022/05/23 06:16:27;;;;;;;5.82;3.53;;;;;;;18.08;63.76;100133.50;10451681;28;20647;-72
2022/05/23 06:21:28;;;;;;;8.35;3.63;;;;;;;18.27;62.18;100115.94;10469400;28;20467;-72
2022/05/23 06:26:28;;;;;;;9.05;3.95;;;;;;;18.23;63.99;100114.16;10467814;28;20040;-71
2022/05/23 06:31:29;;;;;;;13.65;4.85;;;;;;;18.23;63.92;100111.50;10454338;28;20532;-72
2022/05/23 06:36:29;;;;;;;10.30;3.63;;;;;;;18.29;61.92;100097.38;10451596;28;20132;-73
2022/05/23 06:41:30;;;;;;;8.98;3.60;;;;;;;18.16;61.71;100107.94;10452086;28;20069;-72
2022/05/23 06:46:30;;;;;;;12.05;4.60;;;;;;;17.96;65.00;100115.75;10455155;28;20056;-72
2022/05/23 06:51:31;;;;;;;11.38;3.88;;;;;;;18.04;64.50;100122.03;10449932;28;20067;-72
2022/05/23 06:56:32;;;;;;;9.77;3.47;;;;;;;18.17;64.88;100124.72;10452907;28;20068;-72
2022/05/23 07:01:33;;;;;;;6.13;2.90;;;;;;;18.18;63.49;100127.38;10451323;28;20055;-72
2022/05/23 07:17:13;;;;;;;10.52;4.07;;;;;;;18.95;58.75;100093.13;10451482;28;20040;-73
2022/05/23 07:22:14;;;;;;;8.65;5.03;;;;;;;19.14;57.50;100094.03;10469765;28;20029;-74
2022/05/23 07:27:14;;;;;;;7.40;2.92;;;;;;;18.95;59.48;100082.53;10471358;28;20112;-73
2022/05/23 07:32:15;;;;;;;5.07;2.75;;;;;;;18.95;57.76;100071.94;10461475;28;20037;-73
2022/05/23 07:37:16;;;;;;;5.80;3.27;;;;;;;19.18;57.61;100078.16;10459937;28;20033;-74
2022/05/23 07:42:19;;;;;;;7.63;3.53;;;;;;;19.45;56.90;100072.81;10459952;28;20374;-73
2022/05/23 07:47:20;;;;;;;6.95;3.13;;;;;;;19.61;56.51;100069.22;10469430;28;20037;-73
2022/05/23 07:52:20;;;;;;;9.25;3.50;;;;;;;20.24;55.53;100072.59;10460609;28;20052;-73
2022/05/23 08:02:40;;;;;;;9.10;3.25;;;;;;;22.00;52.04;100064.06;10418571;28;20026;-73
2022/05/23 08:07:41;;;;;;;4.37;3.23;;;;;;;24.67;44.06;100051.38;10421416;28;20033;-73
2022/05/23 08:12:47;;;;;;;5.30;2.93;;;;;;;26.25;41.20;100043.66;10457824;28;20089;-73
2022/05/23 08:17:48;;;;;;;8.13;3.00;;;;;;;25.51;42.12;100044.84;10459212;28;20032;-74
2022/05/23 08:22:54;;;;;;;6.40;2.67;;;;;;;24.09;43.99;100037.53;10458513;28;20453;-74
2022/05/23 08:27:55;;;;;;;7.80;3.80;;;;;;;24.26;45.47;100022.00;10458455;28;20047;-74
2022/05/23 08:32:55;;;;;;;4.87;2.60;;;;;;;24.93;42.61;100018.66;10459660;28;20080;-73
2022/05/23 08:37:56;;;;;;;6.63;3.63;;;;;;;24.34;47.60;100008.47;10455922;28;20053;-74
2022/05/23 08:42:57;;;;;;;4.23;3.13;;;;;;;24.18;45.31;100010.59;10440496;28;20435;-73
2022/05/23 08:48:18;;;;;;;8.80;3.85;;;;;;;23.76;47.07;100016.81;10457142;28;20086;-73
2022/05/23 08:53:27;;;;;;;5.70;3.08;;;;;;;23.12;48.83;100020.63;10457350;28;20033;-73
2022/05/23 08:58:34;;;;;;;7.30;3.30;;;;;;;22.35;49.01;100014.75;10455876;28;20057;-73
2022/05/23 09:03:50;;;;;;;7.45;2.80;;;;;;;21.41;50.81;100004.34;10431325;28;20037;-74
2022/05/23 09:08:52;;;;;;;10.73;4.40;;;;;;;20.91;51.60;100003.94;10440194;28;20546;-74
2022/05/23 09:13:53;;;;;;;7.32;3.05;;;;;;;20.65;55.31;99990.81;10455997;28;20040;-72
2022/05/23 09:19:23;;;;;;;4.47;2.45;;;;;;;20.91;55.68;99969.38;10453270;28;20040;-72
2022/05/23 09:24:24;;;;;;;6.38;3.60;;;;;;;21.16;54.59;99958.50;10471393;28;20446;-73
2022/05/23 09:29:24;;;;;;;8.27;4.35;;;;;;;21.85;52.74;99937.28;10459266;28;20029;-72
2022/05/23 09:34:27;;;;;;;13.88;4.07;;;;;;;22.20;54.21;99937.69;10456753;28;20380;-72
2022/05/23 09:39:30;;;;;;;5.97;3.13;;;;;;;22.37;51.12;99934.75;10451768;28;20068;-73
2022/05/23 09:49:51;;;;;;;4.15;2.30;;;;;;;23.83;47.57;99903.56;10440193;28;20435;-74
2022/05/23 09:54:53;;;;;;;4.57;2.30;;;;;;;24.80;45.43;99894.13;10454095;28;20435;-73
2022/05/23 10:00:17;;;;;;;5.53;3.00;;;;;;;24.95;43.49;99882.16;10438071;28;20028;-74
2022/05/23 10:05:25;;;;;;;12.13;3.47;;;;;;;26.42;42.39;99897.41;10448658;28;20144;-74
2022/05/23 10:10:27;;;;;;;6.20;2.55;;;;;;;28.22;40.02;99886.34;10454659;28;20126;-74
2022/05/23 10:15:28;;;;;;;;;;;;;;;30.55;34.74;99882.94;10453852;28;20044;-75
2022/05/23 10:20:38;;;;;;;;;;;;;;;30.71;33.01;99865.00;10454943;28;20003;-74
2022/05/23 10:25:51;;;;;;;4.03;2.45;;;;;;;30.56;32.88;99854.97;10455008;28;20462;-74
2022/05/23 10:31:01;;;;;;;5.47;3.13;;;;;;;29.68;33.48;99846.72;10454715;28;20045;-74
2022/05/23 10:36:21;;;;;;;3.15;1.83;;;;;;;30.42;32.40;99836.81;10436665;28;20037;-72
2022/05/23 10:47:03;;;;;;;16.55;3.83;;;;;;;31.15;30.78;99805.97;10440507;28;20064;-72
2022/05/23 10:52:18;;;;;;;7.00;2.70;;;;;;;31.51;32.31;99812.16;10436889;28;20025;-72
2022/05/23 10:57:33;;;;;;;7.70;2.45;;;;;;;31.39;32.17;99809.19;10436863;28;20040;-72
2022/05/23 11:02:46;;;;;;;9.13;2.80;;;;;;;32.14;31.81;99807.66;10457895;28;20033;-72
2022/05/23 11:08:24;;;;;;;11.15;2.63;;;;;;;31.91;29.90;99789.09;10461379;28;20053;-73
2022/05/23 11:13:34;;;;;;;8.00;3.08;;;;;;;31.61;30.81;99762.00;10462186;28;20052;-73
2022/05/23 11:18:38;;;;;;;19.15;2.88;;;;;;;28.70;34.59;99744.34;10461471;28;20052;-73
2022/05/23 11:23:47;;;;;;;9.45;2.80;;;;;;;27.94;36.39;99730.59;10461473;28;20040;-72
2022/05/23 11:34:44;;;;;;;6.93;3.45;;;;;;;26.17;39.58;99719.47;10461193;28;20472;-72
2022/05/23 11:39:49;;;;;;;6.45;2.90;;;;;;;25.99;42.59;99718.25;10444562;28;20041;-72
2022/05/23 11:44:49;;;;;;;7.22;2.80;;;;;;;26.30;41.43;99709.16;10461138;28;20047;-72
2022/05/23 11:49:59;;;;;;;6.73;2.23;;;;;;;27.82;39.23;99692.56;10461202;28;20507;-72
2022/05/23 11:54:59;;;;;;;5.95;2.97;;;;;;;28.39;37.72;99697.28;10460354;28;20082;-72
2022/05/23 12:00:05;;;;;;;5.87;2.70;;;;;;;29.39;35.87;99684.63;10459963;28;20102;-72
2022/05/23 12:05:12;;;;;;;5.63;3.40;;;;;;;32.25;30.67;99666.25;10442816;28;20422;-72
2022/05/23 12:10:25;;;;;;;7.72;3.17;;;;;;;30.47;34.82;99670.97;10460416;28;20496;-72
2022/05/23 12:15:44;;;;;;;7.47;3.08;;;;;;;29.57;37.04;99669.38;10459398;28;20569;-73
2022/05/23 12:20:46;;;;;;;6.82;3.25;;;;;;;28.69;37.66;99672.59;10459131;28;20040;-73
2022/05/23 12:26:04;;;;;;;6.40;3.22;;;;;;;27.72;40.42;99653.56;10441263;28;20033;-73
2022/05/23 12:31:16;;;;;;;7.43;3.13;;;;;;;27.41;44.20;99661.09;10459694;28;20423;-72
2022/05/23 12:36:20;;;;;;;5.93;2.70;;;;;;;26.51;44.72;99659.25;10458191;28;20127;-72
2022/05/23 12:41:32;;;;;;;6.32;3.00;;;;;;;25.87;48.03;99649.91;10440294;28;20028;-72
2022/05/23 12:46:41;;;;;;;7.35;2.97;;;;;;;25.66;47.43;99643.47;10439220;28;20041;-72
2022/05/23 12:52:17;;;;;;;7.53;3.67;;;;;;;25.30;48.61;99644.66;10416153;28;20428;-72
2022/05/23 12:57:57;;;;;;;6.82;4.10;;;;;;;25.13;49.44;99633.63;10447213;28;20106;-72
2022/05/23 13:03:23;;;;;;;7.43;3.55;;;;;;;25.28;54.83;99634.91;10457376;28;20041;-72
2022/05/23 13:08:32;;;;;;;7.53;3.95;;;;;;;25.29;54.16;99623.25;10456014;28;20529;-72
2022/05/23 13:13:36;;;;;;;10.32;5.43;;;;;;;24.89;53.75;99620.09;10454851;28;20362;-72
2022/05/23 13:24:03;;;;;;;6.03;3.25;;;;;;;23.80;59.44;99596.44;10441647;28;20108;-72
2022/05/23 13:29:09;;;;;;;8.27;3.30;;;;;;;23.50;57.86;99591.00;10429405;28;20025;-73
2022/05/23 13:34:10;;;;;;;9.48;3.58;;;;;;;23.58;57.53;99589.00;10436509;28;20098;-74
2022/05/23 13:39:14;;;;;;;;;;;;;;;23.53;58.19;99582.91;10447896;28;20057;-74
2022/05/23 13:44:22;;;;;;;8.20;3.75;;;;;;;23.84;57.50;99565.16;10439448;28;20353;-74
2022/05/23 13:49:30;;;;;;;10.20;2.95;;;;;;;24.29;56.48;99575.47;10455497;28;20021;-73
2022/05/23 13:54:40;;;;;;;11.55;4.53;;;;;;;24.75;54.42;99564.31;10436945;28;20021;-73
2022/05/23 13:59:48;;;;;;;9.95;4.70;;;;;;;25.02;53.83;99545.63;10453098;28;20068;-74
2022/05/23 14:04:48;;;;;;;16.70;3.95;;;;;;;25.54;51.80;99548.38;10451814;28;20037;-73
2022/05/23 14:09:53;;;;;;;9.70;4.00;;;;;;;25.15;51.46;99555.00;10451811;28;20190;-74
2022/05/23 14:14:58;;;;;;;10.60;3.60;;;;;;;24.73;53.06;99551.00;10420791;28;20033;-73
2022/05/23 14:20:14;;;;;;;6.88;2.95;;;;;;;24.71;53.25;99544.81;10445811;28;20021;-71
2022/05/23 14:25:20;;;;;;;7.85;4.03;;;;;;;24.44;53.16;99534.06;10476410;28;20476;-74
2022/05/23 14:30:23;;;;;;;7.45;3.33;;;;;;;24.07;54.68;99528.94;10453265;28;20079;-74
2022/05/23 14:35:51;;;;;;;7.00;3.40;;;;;;;24.59;55.06;99505.94;10452667;28;20079;-75
2022/05/23 14:40:52;;;;;;;22.67;12.40;;;;;;;26.03;50.77;99491.22;10445709;28;20041;-76
2022/05/23 14:45:58;;;;;;;6.25;3.97;;;;;;;26.34;50.56;99490.91;10447324;28;20499;-74
2022/05/23 14:51:09;;;;;;;11.15;3.40;;;;;;;26.34;49.74;99490.91;10447241;28;20104;-75
2022/05/23 14:56:10;;;;;;;6.93;4.20;;;;;;;25.08;52.46;99475.84;10436015;28;20469;-75
2022/05/23 15:01:23;;;;;;;9.20;5.00;;;;;;;24.07;54.97;99478.16;10440068;28;20087;-74
2022/05/23 15:06:24;;;;;;;9.90;4.20;;;;;;;23.55;57.42;99479.63;10451505;28;20116;-74
2022/05/23 15:11:27;;;;;;;19.60;9.67;;;;;;;23.19;57.09;99477.00;10449046;28;20459;-74
2022/05/23 15:16:29;;;;;;;15.45;8.20;;;;;;;22.86;57.77;99477.84;10450427;28;20403;-74
2022/05/23 15:21:30;;;;;;;6.80;4.32;;;;;;;22.80;58.50;99464.66;10419644;28;20043;-74
2022/05/23 15:26:31;;;;;;;5.57;3.10;;;;;;;22.55;59.62;99451.94;10448088;28;20037;-74
2022/05/23 15:31:32;;;;;;;9.63;4.90;;;;;;;22.24;61.15;99454.44;10411259;28;20121;-74
2022/05/23 15:36:34;;;;;;;8.03;3.93;;;;;;;22.08;61.48;99457.44;10421680;28;20124;-74
2022/05/23 15:41:34;;;;;;;;;;;;;;;22.32;62.37;99441.78;10447087;28;20061;-71
2022/05/23 15:46:35;;;;;;;10.68;4.70;;;;;;;22.49;62.58;99444.06;10444574;28;19970;-73
2022/05/23 15:51:38;;;;;;;7.40;3.60;;;;;;;22.50;63.39;99458.28;10457869;28;20060;-73
2022/05/23 15:56:39;;;;;;;8.32;5.45;;;;;;;22.52;65.51;99467.13;10456530;28;20056;-73
2022/05/23 16:01:39;;;;;;;7.77;3.83;;;;;;;22.18;66.01;99470.56;10458897;28;20033;-75
2022/05/23 16:06:40;;;;;;;7.23;5.03;;;;;;;21.74;68.19;99475.91;10456481;28;20024;-74
2022/05/23 16:11:43;;;;;;;7.63;4.40;;;;;;;21.50;68.43;99465.72;10456646;28;20132;-74
2022/05/23 16:16:48;;;;;;;6.18;3.78;;;;;;;21.77;67.82;99465.19;10444005;28;20087;-74
2022/05/23 16:21:50;;;;;;;7.30;4.30;;;;;;;21.87;67.20;99449.91;10455867;28;20049;-74
2022/05/23 16:26:50;;;;;;;13.48;7.68;;;;;;;21.98;65.61;99447.91;10454933;28;20021;-73
2022/05/23 16:31:51;;;;;;;10.18;5.63;;;;;;;21.82;65.58;99432.25;10432532;28;20063;-74
2022/05/23 16:36:51;;;;;;;10.73;6.47;;;;;;;21.66;65.26;99429.03;10455932;28;20090;-74
2022/05/23 16:41:52;;;;;;;8.70;4.67;;;;;;;21.23;66.96;99413.88;10456627;28;20053;-74
2022/05/23 16:46:52;;;;;;;6.73;4.40;;;;;;;20.86;68.06;99418.13;10456726;28;20095;-73
2022/05/23 16:51:53;;;;;;;8.57;4.70;;;;;;;20.60;69.82;99416.75;10428948;28;20111;-73
2022/05/23 16:56:53;;;;;;;8.95;5.32;;;;;;;20.58;69.59;99415.03;10483903;28;20080;-73
2022/05/23 17:01:55;;;;;;;5.82;3.83;;;;;;;20.37;70.43;99427.75;10451479;28;20113;-73
2022/05/23 17:06:56;;;;;;;;;;;;;;;19.37;76.30;99439.66;10439601;28;20036;-76
2022/05/23 17:11:58;;;;;;;8.48;5.18;;;;;;;18.87;80.43;99443.66;10451929;28;19978;-74
2022/05/23 17:16:58;;;;;;;17.00;7.95;;;;;;;18.52;83.68;99447.50;10454277;28;20036;-75
2022/05/23 17:21:59;;;;;;;12.27;6.35;;;;;;;17.90;88.05;99469.91;10456038;28;20127;-75
2022/05/23 17:26:59;;;;;;;11.80;5.57;;;;;;;17.47;91.26;99473.59;10453668;28;20065;-74
2022/05/23 17:32:00;;;;;;;10.57;4.57;;;;;;;17.01;92.33;99495.72;10453979;28;20041;-74
2022/05/23 17:37:00;;;;;;;7.75;3.08;;;;;;;16.79;93.23;99503.63;10453818;28;20080;-74
2022/05/23 17:42:01;;;;;;;9.85;3.55;;;;;;;16.82;92.41;99502.72;10453672;28;20036;-75
2022/05/23 17:47:04;;;;;;;4.88;2.10;;;;;;;17.15;90.69;99508.91;10455618;28;20112;-74
2022/05/23 17:52:05;;;;;;;11.98;3.80;;;;;;;17.23;88.61;99509.78;10453538;28;20029;-74
2022/05/23 17:57:05;;;;;;;6.50;4.80;;;;;;;16.98;90.25;99515.09;10416952;28;20037;-75
2022/05/23 18:02:06;;;;;;;8.75;6.80;;;;;;;16.62;91.80;99527.38;10455306;28;20107;-74
2022/05/23 18:07:07;;;;;;;20.48;17.88;;;;;;;16.20;93.32;99555.41;10453308;28;20040;-75
2022/05/23 18:12:08;;;;;;;28.65;25.00;;;;;;;15.63;92.57;99577.09;10454238;28;20108;-75
2022/05/23 18:22:27;;;;;;;42.33;35.10;;;;;;;14.62;94.02;99615.72;10453427;28;20045;-74
2022/05/23 18:27:28;;;;;;;35.75;31.65;;;;;;;14.43;93.95;99628.69;10454145;28;20060;-75
2022/05/23 18:32:28;;;;;;;28.77;25.00;;;;;;;14.19;94.02;99645.94;10452919;28;20461;-75
2022/05/23 18:37:29;;;;;;;20.25;17.92;;;;;;;13.98;93.84;99682.47;10454109;28;20066;-75
2022/05/23 18:42:29;;;;;;;16.77;13.80;;;;;;;13.81;93.53;99688.34;10451569;28;20033;-75
2022/05/23 18:47:30;;;;;;;18.45;12.90;;;;;;;13.67;93.37;99696.00;10451902;28;20053;-75
2022/05/23 18:52:30;;;;;;;18.80;16.00;;;;;;;13.63;93.82;99726.63;10453164;28;20061;-75
2022/05/23 18:57:31;;;;;;;19.40;17.40;;;;;;;13.51;94.69;99740.44;10453229;28;20079;-75
2022/05/23 19:02:34;;;;;;;18.42;14.73;;;;;;;13.34;94.11;99745.38;10453123;28;20067;-75
2022/05/23 19:07:36;;;;;;;20.27;15.95;;;;;;;13.31;94.98;99762.81;10451375;28;20504;-75
2022/05/23 19:12:36;;;;;;;19.47;15.67;;;;;;;13.25;94.87;99783.72;10451892;28;20049;-75
2022/05/23 19:17:37;;;;;;;21.10;17.17;;;;;;;13.16;94.55;99790.56;10452403;28;20384;-76
2022/05/23 19:22:38;;;;;;;25.25;18.65;;;;;;;13.14;94.65;99802.78;10453446;28;20029;-76
2022/05/23 19:27:39;;;;;;;30.30;22.80;;;;;;;13.13;94.86;99802.75;10457574;28;20064;-75
2022/05/23 19:32:39;;;;;;;30.40;24.27;;;;;;;13.08;95.57;99826.28;10438389;28;20029;-75
2022/05/23 19:37:40;;;;;;;39.53;28.75;;;;;;;13.05;95.81;99839.34;10459693;28;20511;-75
2022/05/23 19:42:42;;;;;;;42.08;31.63;;;;;;;13.05;96.64;99856.03;10458204;28;20028;-75
2022/05/23 19:47:42;;;;;;;41.78;32.03;;;;;;;13.04;96.28;99869.09;10430050;28;20033;-75
2022/05/23 19:52:46;;;;;;;33.03;26.42;;;;;;;13.03;95.94;99873.47;10458308;28;20032;-75
2022/05/23 19:57:47;;;;;;;28.80;22.30;;;;;;;13.00;95.07;99888.28;10428801;28;20033;-77
2022/05/23 20:08:07;;;;;;;32.35;23.90;;;;;;;13.00;95.30;99904.94;10458320;28;20060;-77
2022/05/23 20:13:08;;;;;;;30.73;21.88;;;;;;;12.94;95.52;99915.31;10457113;28;20083;-77
2022/05/23 20:18:12;;;;;;;29.77;21.80;;;;;;;12.90;95.87;99924.84;10456712;28;20115;-76
2022/05/23 20:23:16;;;;;;;31.80;22.63;;;;;;;12.88;95.78;99923.03;10453683;28;20033;-75
2022/05/23 20:28:17;;;;;;;29.23;19.30;;;;;;;12.87;95.80;99931.78;10428356;28;20041;-76
2022/05/23 20:33:18;;;;;;;24.50;19.15;;;;;;;12.87;95.95;99937.91;10458235;28;20773;-75
2022/05/23 20:38:18;;;;;;;27.33;18.27;;;;;;;12.87;95.68;99942.28;10455277;28;20036;-75
2022/05/23 20:43:20;;;;;;;23.42;16.58;;;;;;;12.91;95.65;99941.50;10456928;28;20055;-76
2022/05/23 20:48:20;;;;;;;31.43;18.53;;;;;;;12.87;94.70;99948.41;10454854;28;20499;-75
2022/05/23 20:53:23;;;;;;;27.35;19.98;;;;;;;12.86;95.11;99959.75;10455081;28;20380;-76
2022/05/23 20:58:23;;;;;;;31.85;23.48;;;;;;;12.89;95.26;99962.44;10456076;28;20032;-75
2022/05/23 21:03:24;;;;;;;27.73;22.08;;;;;;;12.90;95.12;99964.22;10456151;28;20471;-74
2022/05/23 21:08:25;;;;;;;34.40;24.98;;;;;;;12.87;95.79;99961.53;10455751;28;20064;-74
2022/05/23 21:13:26;;;;;;;36.42;23.88;;;;;;;12.92;95.22;99969.53;10453838;28;20076;-75
2022/05/23 21:18:26;;;;;;;39.00;25.48;;;;;;;12.95;95.49;99977.47;10454509;28;20037;-75
2022/05/23 21:23:27;;;;;;;32.80;24.40;;;;;;;13.01;95.29;99971.47;10437214;28;20037;-74
2022/05/23 21:28:27;;;;;;;39.50;24.65;;;;;;;13.00;95.59;99964.44;10453800;28;20043;-75
2022/05/23 21:33:28;;;;;;;33.58;25.20;;;;;;;12.99;95.27;99970.56;10454340;28;20118;-74
2022/05/23 21:38:28;;;;;;;32.42;21.58;;;;;;;12.96;94.59;99966.13;10436278;28;20040;-75
2022/05/23 21:48:48;;;;;;;28.85;21.73;;;;;;;12.90;94.77;99981.75;10449759;28;20399;-75
2022/05/23 21:53:48;;;;;;;30.00;23.15;;;;;;;12.82;95.12;99983.28;10455196;28;20115;-75
2022/05/23 21:58:49;;;;;;;30.25;22.70;;;;;;;12.75;95.69;99993.66;10453685;28;20068;-76
2022/05/23 22:03:49;;;;;;;33.75;24.92;;;;;;;12.66;96.53;99990.78;10455549;28;20492;-74
2022/05/23 22:08:50;;;;;;;33.03;23.48;;;;;;;12.63;96.96;99981.09;10453462;28;20489;-74
2022/05/23 22:13:51;;;;;;;30.45;23.23;;;;;;;12.62;97.21;99991.56;10451053;28;20037;-74
2022/05/23 22:18:51;;;;;;;31.63;23.33;;;;;;;12.60;97.68;99990.63;10453735;28;20048;-74
2022/05/23 22:23:52;;;;;;;35.90;23.98;;;;;;;12.60;97.62;99991.50;10428945;28;20032;-74
2022/05/23 22:28:54;;;;;;;35.40;25.83;;;;;;;12.62;98.08;99983.69;10450721;28;20033;-74
2022/05/23 22:33:54;;;;;;;34.55;24.35;;;;;;;12.63;98.20;99990.72;10453706;28;20056;-74
2022/05/23 22:38:55;;;;;;;33.70;23.80;;;;;;;12.65;98.07;99988.09;10450683;28;20045;-74
2022/05/23 22:43:55;;;;;;;35.13;25.85;;;;;;;12.66;97.77;99990.78;10453886;28;20071;-74
2022/05/23 22:48:56;;;;;;;34.78;25.33;;;;;;;12.69;98.23;100003.09;10451493;28;20502;-74
2022/05/23 22:53:58;;;;;;;34.67;24.58;;;;;;;12.72;97.99;100004.06;10453271;28;20464;-74
2022/05/23 22:58:59;;;;;;;36.28;23.88;;;;;;;12.75;98.06;100006.78;10454635;28;20423;-74
2022/05/23 23:09:19;;;;;;;37.90;25.05;;;;;;;12.84;97.72;100006.09;10443187;28;20041;-74
2022/05/23 23:14:19;;;;;;;28.58;22.15;;;;;;;12.90;96.91;100013.25;10460519;28;20084;-74
2022/05/23 23:19:20;;;;;;;39.85;27.08;;;;;;;12.77;97.07;100014.66;10428689;28;20147;-74
2022/05/23 23:24:20;;;;;;;34.45;25.05;;;;;;;12.67;97.81;99999.53;10459820;28;20106;-75
2022/05/23 23:29:21;;;;;;;38.85;26.60;;;;;;;12.61;98.59;99995.91;10430877;28;20072;-74
2022/05/23 23:39:40;;;;;;;33.33;26.10;;;;;;;12.65;99.31;100007.38;10458381;28;20119;-74
2022/05/23 23:44:41;;;;;;;37.50;26.40;;;;;;;12.74;99.13;100002.38;10460080;28;20116;-74
2022/05/23 23:49:41;;;;;;;36.97;25.83;;;;;;;12.74;99.21;99998.84;10456411;28;20124;-74
2022/05/23 23:54:42;;;;;;;42.83;28.13;;;;;;;12.73;98.97;100005.84;10460300;28;20063;-74
2022/05/23 23:59:43;;;;;;;36.47;24.42;;;;;;;12.73;99.06;99997.06;10456988;28;20060;-74
